sensor_id;sensor_type;location;lat;lon;timestamp;P1;durP1;ratioP1;P2;durP2;ratioP2
47413;SDS011;33163;0.000;0.000;2022-10-20T00:01:34;14.73;;;6.90;;
47413;SDS011;33163;0.000;0.000;2022-10-20T00:04:01;8.93;;;6.15;;
47413;SDS011;33163;0.000;0.000;2022-10-20T00:06:29;11.90;;;6.53;;
47413;SDS011;33163;0.000;0.000;2022-10-20T00:08:58;10.25;;;6.18;;
47413;SDS011;33163;0.000;0.000;2022-10-20T00:11:27;13.40;;;6.30;;
47413;SDS011;33163;0.000;0.000;2022-10-20T00:13:55;13.00;;;6.47;;
47413;SDS011;33163;0.000;0.000;2022-10-20T00:16:23;11.35;;;6.68;;
47413;SDS011;33163;0.000;0.000;2022-10-20T00:18:51;8.10;;;5.53;;
47413;SDS011;33163;0.000;0.000;2022-10-20T00:21:19;7.72;;;5.20;;
47413;SDS011;33163;0.000;0.000;2022-10-20T00:23:47;8.88;;;5.40;;
47413;SDS011;33163;0.000;0.000;2022-10-20T00:26:15;11.00;;;5.45;;
47413;SDS011;33163;0.000;0.000;2022-10-20T00:28:45;8.32;;;5.25;;
47413;SDS011;33163;0.000;0.000;2022-10-20T00:31:12;9.45;;;5.40;;
47413;SDS011;33163;0.000;0.000;2022-10-20T00:33:39;8.18;;;5.35;;
47413;SDS011;33163;0.000;0.000;2022-10-20T00:36:07;12.43;;;5.43;;
47413;SDS011;33163;0.000;0.000;2022-10-20T00:38:37;8.77;;;5.43;;
47413;SDS011;33163;0.000;0.000;2022-10-20T00:41:04;7.90;;;4.70;;
47413;SDS011;33163;0.000;0.000;2022-10-20T00:43:45;9.45;;;5.20;;
47413;SDS011;33163;0.000;0.000;2022-10-20T00:46:15;8.90;;;4.72;;
47413;SDS011;33163;0.000;0.000;2022-10-20T00:48:45;11.05;;;4.60;;
47413;SDS011;33163;0.000;0.000;2022-10-20T00:51:15;9.30;;;5.00;;
47413;SDS011;33163;0.000;0.000;2022-10-20T00:53:45;7.55;;;4.53;;
47413;SDS011;33163;0.000;0.000;2022-10-20T00:56:13;14.43;;;5.18;;
47413;SDS011;33163;0.000;0.000;2022-10-20T00:58:40;6.70;;;4.45;;
47413;SDS011;33163;0.000;0.000;2022-10-20T01:01:09;9.30;;;5.00;;
47413;SDS011;33163;0.000;0.000;2022-10-20T01:03:39;5.78;;;3.85;;
47413;SDS011;33163;0.000;0.000;2022-10-20T01:06:10;8.43;;;4.80;;
47413;SDS011;33163;0.000;0.000;2022-10-20T01:08:38;6.28;;;3.95;;
47413;SDS011;33163;0.000;0.000;2022-10-20T01:11:08;7.22;;;3.88;;
47413;SDS011;33163;0.000;0.000;2022-10-20T01:13:45;6.60;;;3.90;;
47413;SDS011;33163;0.000;0.000;2022-10-20T01:16:24;7.18;;;3.92;;
47413;SDS011;33163;0.000;0.000;2022-10-20T01:24:31;5.18;;;3.65;;
47413;SDS011;33163;0.000;0.000;2022-10-20T01:27:28;5.72;;;3.78;;
47413;SDS011;33163;0.000;0.000;2022-10-20T01:30:10;6.25;;;3.63;;
47413;SDS011;33163;0.000;0.000;2022-10-20T01:32:43;6.32;;;3.38;;
47413;SDS011;33163;0.000;0.000;2022-10-20T01:35:19;6.85;;;4.00;;
47413;SDS011;33163;0.000;0.000;2022-10-20T01:37:53;4.80;;;3.65;;
47413;SDS011;33163;0.000;0.000;2022-10-20T01:40:30;5.10;;;3.35;;
47413;SDS011;33163;0.000;0.000;2022-10-20T01:43:03;4.28;;;3.45;;
47413;SDS011;33163;0.000;0.000;2022-10-20T01:45:33;5.55;;;3.67;;
47413;SDS011;33163;0.000;0.000;2022-10-20T01:48:03;7.80;;;3.60;;
47413;SDS011;33163;0.000;0.000;2022-10-20T01:50:32;5.55;;;3.42;;
47413;SDS011;33163;0.000;0.000;2022-10-20T01:53:00;6.03;;;4.15;;
47413;SDS011;33163;0.000;0.000;2022-10-20T01:55:28;8.63;;;3.45;;
47413;SDS011;33163;0.000;0.000;2022-10-20T01:58:04;6.80;;;3.25;;
47413;SDS011;33163;0.000;0.000;2022-10-20T02:00:40;5.13;;;2.72;;
47413;SDS011;33163;0.000;0.000;2022-10-20T02:03:12;4.90;;;3.17;;
47413;SDS011;33163;0.000;0.000;2022-10-20T02:05:57;4.03;;;2.90;;
47413;SDS011;33163;0.000;0.000;2022-10-20T02:08:36;8.05;;;2.72;;
47413;SDS011;33163;0.000;0.000;2022-10-20T02:11:08;4.40;;;3.20;;
47413;SDS011;33163;0.000;0.000;2022-10-20T02:13:42;4.50;;;3.25;;
47413;SDS011;33163;0.000;0.000;2022-10-20T02:16:10;9.88;;;3.15;;
47413;SDS011;33163;0.000;0.000;2022-10-20T02:18:42;4.28;;;3.05;;
47413;SDS011;33163;0.000;0.000;2022-10-20T02:21:10;4.43;;;3.05;;
47413;SDS011;33163;0.000;0.000;2022-10-20T02:23:38;7.95;;;3.15;;
47413;SDS011;33163;0.000;0.000;2022-10-20T02:26:12;3.28;;;2.50;;
47413;SDS011;33163;0.000;0.000;2022-10-20T02:28:43;5.03;;;3.17;;
47413;SDS011;33163;0.000;0.000;2022-10-20T02:31:13;3.60;;;2.72;;
47413;SDS011;33163;0.000;0.000;2022-10-20T02:33:41;5.45;;;2.72;;
47413;SDS011;33163;0.000;0.000;2022-10-20T02:36:11;3.78;;;2.40;;
47413;SDS011;33163;0.000;0.000;2022-10-20T02:38:41;5.10;;;2.90;;
47413;SDS011;33163;0.000;0.000;2022-10-20T02:41:08;6.15;;;3.30;;
47413;SDS011;33163;0.000;0.000;2022-10-20T02:43:38;5.40;;;2.85;;
47413;SDS011;33163;0.000;0.000;2022-10-20T02:46:06;4.93;;;2.90;;
47413;SDS011;33163;0.000;0.000;2022-10-20T02:48:32;4.40;;;2.92;;
47413;SDS011;33163;0.000;0.000;2022-10-20T02:50:59;5.10;;;3.00;;
47413;SDS011;33163;0.000;0.000;2022-10-20T02:53:26;4.05;;;2.70;;
47413;SDS011;33163;0.000;0.000;2022-10-20T02:55:53;5.47;;;2.75;;
47413;SDS011;33163;0.000;0.000;2022-10-20T02:58:19;5.50;;;2.90;;
47413;SDS011;33163;0.000;0.000;2022-10-20T03:00:47;5.18;;;2.72;;
47413;SDS011;33163;0.000;0.000;2022-10-20T03:03:16;4.43;;;2.75;;
47413;SDS011;33163;0.000;0.000;2022-10-20T03:05:43;3.05;;;2.05;;
47413;SDS011;33163;0.000;0.000;2022-10-20T03:08:11;4.97;;;2.70;;
47413;SDS011;33163;0.000;0.000;2022-10-20T03:10:39;5.07;;;2.35;;
47413;SDS011;33163;0.000;0.000;2022-10-20T03:13:06;7.25;;;2.72;;
47413;SDS011;33163;0.000;0.000;2022-10-20T03:15:33;5.38;;;2.63;;
47413;SDS011;33163;0.000;0.000;2022-10-20T03:18:00;4.90;;;2.72;;
47413;SDS011;33163;0.000;0.000;2022-10-20T03:20:28;3.63;;;2.53;;
47413;SDS011;33163;0.000;0.000;2022-10-20T03:22:55;3.58;;;2.60;;
47413;SDS011;33163;0.000;0.000;2022-10-20T03:25:21;6.75;;;3.03;;
47413;SDS011;33163;0.000;0.000;2022-10-20T03:27:48;3.95;;;2.42;;
47413;SDS011;33163;0.000;0.000;2022-10-20T03:30:15;2.83;;;2.38;;
47413;SDS011;33163;0.000;0.000;2022-10-20T03:32:42;5.43;;;2.30;;
47413;SDS011;33163;0.000;0.000;2022-10-20T03:35:08;4.75;;;2.20;;
47413;SDS011;33163;0.000;0.000;2022-10-20T03:37:37;4.55;;;3.00;;
47413;SDS011;33163;0.000;0.000;2022-10-20T03:40:04;5.72;;;2.40;;
47413;SDS011;33163;0.000;0.000;2022-10-20T03:42:31;4.03;;;2.30;;
47413;SDS011;33163;0.000;0.000;2022-10-20T03:44:58;5.30;;;2.50;;
47413;SDS011;33163;0.000;0.000;2022-10-20T03:47:25;2.42;;;2.20;;
47413;SDS011;33163;0.000;0.000;2022-10-20T03:49:51;6.88;;;2.30;;
47413;SDS011;33163;0.000;0.000;2022-10-20T03:52:19;3.38;;;2.38;;
47413;SDS011;33163;0.000;0.000;2022-10-20T03:54:47;5.90;;;2.65;;
47413;SDS011;33163;0.000;0.000;2022-10-20T03:57:13;4.20;;;2.40;;
47413;SDS011;33163;0.000;0.000;2022-10-20T03:59:40;3.63;;;2.40;;
47413;SDS011;33163;0.000;0.000;2022-10-20T04:02:08;3.95;;;2.42;;
47413;SDS011;33163;0.000;0.000;2022-10-20T04:04:47;3.60;;;2.35;;
47413;SDS011;33163;0.000;0.000;2022-10-20T04:07:14;4.43;;;2.40;;
47413;SDS011;33163;0.000;0.000;2022-10-20T04:09:40;5.25;;;2.83;;
47413;SDS011;33163;0.000;0.000;2022-10-20T04:12:09;3.38;;;2.17;;
47413;SDS011;33163;0.000;0.000;2022-10-20T04:14:35;3.53;;;2.30;;
47413;SDS011;33163;0.000;0.000;2022-10-20T04:17:02;3.40;;;2.50;;
47413;SDS011;33163;0.000;0.000;2022-10-20T04:19:29;5.35;;;2.40;;
47413;SDS011;33163;0.000;0.000;2022-10-20T04:21:55;5.30;;;2.65;;
47413;SDS011;33163;0.000;0.000;2022-10-20T04:24:22;3.83;;;2.28;;
47413;SDS011;33163;0.000;0.000;2022-10-20T04:26:49;4.05;;;2.80;;
47413;SDS011;33163;0.000;0.000;2022-10-20T04:29:17;4.13;;;2.47;;
47413;SDS011;33163;0.000;0.000;2022-10-20T04:31:43;3.00;;;2.30;;
47413;SDS011;33163;0.000;0.000;2022-10-20T04:34:10;5.55;;;2.50;;
47413;SDS011;33163;0.000;0.000;2022-10-20T04:36:37;4.95;;;2.45;;
47413;SDS011;33163;0.000;0.000;2022-10-20T04:39:04;3.15;;;2.03;;
47413;SDS011;33163;0.000;0.000;2022-10-20T04:41:31;3.22;;;2.28;;
47413;SDS011;33163;0.000;0.000;2022-10-20T04:43:58;4.50;;;2.55;;
47413;SDS011;33163;0.000;0.000;2022-10-20T04:46:26;3.00;;;2.45;;
47413;SDS011;33163;0.000;0.000;2022-10-20T04:48:52;2.83;;;2.33;;
47413;SDS011;33163;0.000;0.000;2022-10-20T04:51:19;2.90;;;2.42;;
47413;SDS011;33163;0.000;0.000;2022-10-20T04:53:46;5.45;;;2.17;;
47413;SDS011;33163;0.000;0.000;2022-10-20T04:56:13;4.78;;;2.17;;
47413;SDS011;33163;0.000;0.000;2022-10-20T04:58:45;3.50;;;2.05;;
47413;SDS011;33163;0.000;0.000;2022-10-20T05:01:12;4.90;;;2.63;;
47413;SDS011;33163;0.000;0.000;2022-10-20T05:03:40;3.13;;;2.22;;
47413;SDS011;33163;0.000;0.000;2022-10-20T05:06:08;3.60;;;2.35;;
47413;SDS011;33163;0.000;0.000;2022-10-20T05:08:36;3.92;;;2.50;;
47413;SDS011;33163;0.000;0.000;2022-10-20T05:11:03;3.30;;;2.20;;
47413;SDS011;33163;0.000;0.000;2022-10-20T05:13:30;3.70;;;2.70;;
47413;SDS011;33163;0.000;0.000;2022-10-20T05:15:57;3.92;;;2.45;;
47413;SDS011;33163;0.000;0.000;2022-10-20T05:18:24;5.22;;;2.75;;
47413;SDS011;33163;0.000;0.000;2022-10-20T05:20:52;3.33;;;2.13;;
47413;SDS011;33163;0.000;0.000;2022-10-20T05:23:19;3.92;;;2.70;;
47413;SDS011;33163;0.000;0.000;2022-10-20T05:25:45;5.60;;;2.55;;
47413;SDS011;33163;0.000;0.000;2022-10-20T05:28:12;3.08;;;2.40;;
47413;SDS011;33163;0.000;0.000;2022-10-20T05:30:39;3.88;;;2.25;;
47413;SDS011;33163;0.000;0.000;2022-10-20T05:33:05;4.35;;;2.40;;
47413;SDS011;33163;0.000;0.000;2022-10-20T05:35:32;2.28;;;2.08;;
47413;SDS011;33163;0.000;0.000;2022-10-20T05:38:01;4.32;;;1.98;;
47413;SDS011;33163;0.000;0.000;2022-10-20T05:40:27;3.33;;;2.25;;
47413;SDS011;33163;0.000;0.000;2022-10-20T05:42:54;2.63;;;2.20;;
47413;SDS011;33163;0.000;0.000;2022-10-20T05:45:21;5.85;;;2.63;;
47413;SDS011;33163;0.000;0.000;2022-10-20T05:47:48;3.50;;;2.45;;
47413;SDS011;33163;0.000;0.000;2022-10-20T05:50:15;2.33;;;2.10;;
47413;SDS011;33163;0.000;0.000;2022-10-20T05:52:41;3.13;;;2.58;;
47413;SDS011;33163;0.000;0.000;2022-10-20T05:55:10;2.58;;;2.25;;
47413;SDS011;33163;0.000;0.000;2022-10-20T05:57:36;5.88;;;2.97;;
47413;SDS011;33163;0.000;0.000;2022-10-20T06:00:03;4.32;;;2.47;;
47413;SDS011;33163;0.000;0.000;2022-10-20T06:02:31;3.63;;;2.42;;
47413;SDS011;33163;0.000;0.000;2022-10-20T06:04:58;4.55;;;2.40;;
47413;SDS011;33163;0.000;0.000;2022-10-20T06:07:25;3.92;;;2.22;;
47413;SDS011;33163;0.000;0.000;2022-10-20T06:09:51;5.13;;;2.45;;
47413;SDS011;33163;0.000;0.000;2022-10-20T06:12:20;2.92;;;2.40;;
47413;SDS011;33163;0.000;0.000;2022-10-20T06:14:46;2.95;;;2.58;;
47413;SDS011;33163;0.000;0.000;2022-10-20T06:17:13;4.80;;;3.05;;
47413;SDS011;33163;0.000;0.000;2022-10-20T06:19:40;4.18;;;2.47;;
47413;SDS011;33163;0.000;0.000;2022-10-20T06:22:06;3.45;;;2.38;;
47413;SDS011;33163;0.000;0.000;2022-10-20T06:24:33;9.02;;;2.97;;
47413;SDS011;33163;0.000;0.000;2022-10-20T06:27:00;4.20;;;2.33;;
47413;SDS011;33163;0.000;0.000;2022-10-20T06:29:28;6.55;;;2.72;;
47413;SDS011;33163;0.000;0.000;2022-10-20T06:31:55;7.18;;;3.30;;
47413;SDS011;33163;0.000;0.000;2022-10-20T06:34:22;5.40;;;3.00;;
47413;SDS011;33163;0.000;0.000;2022-10-20T06:36:50;7.40;;;3.00;;
47413;SDS011;33163;0.000;0.000;2022-10-20T06:39:17;5.00;;;2.95;;
47413;SDS011;33163;0.000;0.000;2022-10-20T06:41:45;3.85;;;2.75;;
47413;SDS011;33163;0.000;0.000;2022-10-20T06:44:14;8.52;;;3.05;;
47413;SDS011;33163;0.000;0.000;2022-10-20T06:46:42;11.48;;;3.92;;
47413;SDS011;33163;0.000;0.000;2022-10-20T06:49:10;5.32;;;3.00;;
47413;SDS011;33163;0.000;0.000;2022-10-20T06:51:37;4.43;;;2.90;;
47413;SDS011;33163;0.000;0.000;2022-10-20T06:54:04;5.88;;;2.75;;
47413;SDS011;33163;0.000;0.000;2022-10-20T06:56:32;6.65;;;3.20;;
47413;SDS011;33163;0.000;0.000;2022-10-20T06:59:00;7.13;;;3.35;;
47413;SDS011;33163;0.000;0.000;2022-10-20T07:01:27;7.25;;;3.20;;
47413;SDS011;33163;0.000;0.000;2022-10-20T07:03:58;4.40;;;3.20;;
47413;SDS011;33163;0.000;0.000;2022-10-20T07:06:26;8.00;;;3.28;;
47413;SDS011;33163;0.000;0.000;2022-10-20T07:08:54;5.43;;;3.20;;
47413;SDS011;33163;0.000;0.000;2022-10-20T07:11:22;5.93;;;2.92;;
47413;SDS011;33163;0.000;0.000;2022-10-20T07:13:50;8.55;;;3.45;;
47413;SDS011;33163;0.000;0.000;2022-10-20T07:16:17;5.97;;;3.50;;
47413;SDS011;33163;0.000;0.000;2022-10-20T07:18:45;4.88;;;2.88;;
47413;SDS011;33163;0.000;0.000;2022-10-20T07:21:15;4.63;;;2.85;;
47413;SDS011;33163;0.000;0.000;2022-10-20T07:23:43;6.65;;;3.03;;
47413;SDS011;33163;0.000;0.000;2022-10-20T07:26:10;5.22;;;3.00;;
47413;SDS011;33163;0.000;0.000;2022-10-20T07:28:39;3.72;;;2.90;;
47413;SDS011;33163;0.000;0.000;2022-10-20T07:31:09;4.75;;;3.05;;
47413;SDS011;33163;0.000;0.000;2022-10-20T07:33:37;4.03;;;2.75;;
47413;SDS011;33163;0.000;0.000;2022-10-20T07:36:09;5.30;;;3.25;;
47413;SDS011;33163;0.000;0.000;2022-10-20T07:38:38;6.22;;;3.25;;
47413;SDS011;33163;0.000;0.000;2022-10-20T07:41:05;5.50;;;3.30;;
47413;SDS011;33163;0.000;0.000;2022-10-20T07:43:33;3.53;;;2.63;;
47413;SDS011;33163;0.000;0.000;2022-10-20T07:46:00;4.78;;;3.22;;
47413;SDS011;33163;0.000;0.000;2022-10-20T07:48:27;4.18;;;2.80;;
47413;SDS011;33163;0.000;0.000;2022-10-20T07:50:53;4.45;;;2.78;;
47413;SDS011;33163;0.000;0.000;2022-10-20T07:53:38;3.92;;;2.92;;
47413;SDS011;33163;0.000;0.000;2022-10-20T07:56:05;7.45;;;3.85;;
47413;SDS011;33163;0.000;0.000;2022-10-20T07:58:32;6.18;;;3.05;;
47413;SDS011;33163;0.000;0.000;2022-10-20T08:00:59;5.13;;;2.90;;
47413;SDS011;33163;0.000;0.000;2022-10-20T08:03:25;7.28;;;3.25;;
47413;SDS011;33163;0.000;0.000;2022-10-20T08:05:52;7.57;;;3.60;;
47413;SDS011;33163;0.000;0.000;2022-10-20T08:08:19;3.85;;;3.00;;
47413;SDS011;33163;0.000;0.000;2022-10-20T08:10:47;4.68;;;3.13;;
47413;SDS011;33163;0.000;0.000;2022-10-20T08:13:14;9.10;;;3.67;;
47413;SDS011;33163;0.000;0.000;2022-10-20T08:15:41;4.93;;;2.78;;
47413;SDS011;33163;0.000;0.000;2022-10-20T08:18:07;4.72;;;2.90;;
47413;SDS011;33163;0.000;0.000;2022-10-20T08:20:34;6.63;;;3.60;;
47413;SDS011;33163;0.000;0.000;2022-10-20T08:23:01;6.07;;;3.08;;
47413;SDS011;33163;0.000;0.000;2022-10-20T08:25:28;3.80;;;2.70;;
47413;SDS011;33163;0.000;0.000;2022-10-20T08:27:56;4.72;;;3.13;;
47413;SDS011;33163;0.000;0.000;2022-10-20T08:30:23;5.10;;;3.47;;
47413;SDS011;33163;0.000;0.000;2022-10-20T08:32:49;7.18;;;3.40;;
47413;SDS011;33163;0.000;0.000;2022-10-20T08:35:17;9.30;;;3.40;;
47413;SDS011;33163;0.000;0.000;2022-10-20T08:37:43;3.85;;;2.92;;
47413;SDS011;33163;0.000;0.000;2022-10-20T08:40:11;7.00;;;3.35;;
47413;SDS011;33163;0.000;0.000;2022-10-20T08:42:41;6.22;;;3.80;;
47413;SDS011;33163;0.000;0.000;2022-10-20T08:45:12;4.38;;;3.08;;
47413;SDS011;33163;0.000;0.000;2022-10-20T08:47:40;6.65;;;3.50;;
47413;SDS011;33163;0.000;0.000;2022-10-20T08:50:09;4.53;;;3.55;;
47413;SDS011;33163;0.000;0.000;2022-10-20T08:52:41;6.55;;;3.95;;
47413;SDS011;33163;0.000;0.000;2022-10-20T08:55:09;4.88;;;3.22;;
47413;SDS011;33163;0.000;0.000;2022-10-20T08:57:46;5.53;;;3.30;;
47413;SDS011;33163;0.000;0.000;2022-10-20T09:00:16;7.15;;;3.40;;
47413;SDS011;33163;0.000;0.000;2022-10-20T09:02:46;9.30;;;3.72;;
47413;SDS011;33163;0.000;0.000;2022-10-20T09:05:14;5.15;;;3.45;;
47413;SDS011;33163;0.000;0.000;2022-10-20T09:07:44;7.03;;;3.47;;
47413;SDS011;33163;0.000;0.000;2022-10-20T09:10:21;5.22;;;3.40;;
47413;SDS011;33163;0.000;0.000;2022-10-20T09:12:52;4.50;;;3.17;;
47413;SDS011;33163;0.000;0.000;2022-10-20T09:15:20;10.70;;;3.55;;
47413;SDS011;33163;0.000;0.000;2022-10-20T09:17:52;5.82;;;3.63;;
47413;SDS011;33163;0.000;0.000;2022-10-20T09:20:21;4.05;;;3.03;;
47413;SDS011;33163;0.000;0.000;2022-10-20T09:22:50;5.15;;;3.15;;
47413;SDS011;33163;0.000;0.000;2022-10-20T09:25:18;3.80;;;3.30;;
47413;SDS011;33163;0.000;0.000;2022-10-20T09:27:48;6.00;;;3.25;;
47413;SDS011;33163;0.000;0.000;2022-10-20T09:30:16;5.38;;;3.53;;
47413;SDS011;33163;0.000;0.000;2022-10-20T09:32:46;8.93;;;3.35;;
47413;SDS011;33163;0.000;0.000;2022-10-20T09:35:23;4.22;;;3.00;;
47413;SDS011;33163;0.000;0.000;2022-10-20T09:37:53;5.32;;;3.38;;
47413;SDS011;33163;0.000;0.000;2022-10-20T09:40:23;5.70;;;3.50;;
47413;SDS011;33163;0.000;0.000;2022-10-20T09:42:52;4.47;;;3.17;;
47413;SDS011;33163;0.000;0.000;2022-10-20T09:45:21;6.35;;;3.35;;
47413;SDS011;33163;0.000;0.000;2022-10-20T09:47:54;5.95;;;3.67;;
47413;SDS011;33163;0.000;0.000;2022-10-20T09:50:26;4.32;;;2.83;;
47413;SDS011;33163;0.000;0.000;2022-10-20T09:52:55;5.82;;;3.38;;
47413;SDS011;33163;0.000;0.000;2022-10-20T09:55:25;6.40;;;3.67;;
47413;SDS011;33163;0.000;0.000;2022-10-20T09:57:53;4.13;;;2.90;;
47413;SDS011;33163;0.000;0.000;2022-10-20T10:00:22;3.72;;;2.85;;
47413;SDS011;33163;0.000;0.000;2022-10-20T10:05:49;5.22;;;3.53;;
47413;SDS011;33163;0.000;0.000;2022-10-20T10:08:17;5.93;;;2.95;;
47413;SDS011;33163;0.000;0.000;2022-10-20T10:10:45;5.40;;;3.90;;
47413;SDS011;33163;0.000;0.000;2022-10-20T10:13:24;7.53;;;3.30;;
47413;SDS011;33163;0.000;0.000;2022-10-20T10:16:00;9.65;;;3.38;;
47413;SDS011;33163;0.000;0.000;2022-10-20T10:18:32;9.45;;;3.42;;
47413;SDS011;33163;0.000;0.000;2022-10-20T10:21:02;3.88;;;3.30;;
47413;SDS011;33163;0.000;0.000;2022-10-20T10:23:32;6.90;;;3.00;;
47413;SDS011;33163;0.000;0.000;2022-10-20T10:26:04;7.80;;;3.55;;
47413;SDS011;33163;0.000;0.000;2022-10-20T10:28:59;7.93;;;3.60;;
47413;SDS011;33163;0.000;0.000;2022-10-20T10:31:26;6.63;;;3.17;;
47413;SDS011;33163;0.000;0.000;2022-10-20T10:33:54;4.03;;;2.95;;
47413;SDS011;33163;0.000;0.000;2022-10-20T10:36:31;5.55;;;3.28;;
47413;SDS011;33163;0.000;0.000;2022-10-20T10:38:59;6.63;;;3.20;;
47413;SDS011;33163;0.000;0.000;2022-10-20T10:41:36;6.20;;;3.78;;
47413;SDS011;33163;0.000;0.000;2022-10-20T10:44:16;5.03;;;3.50;;
47413;SDS011;33163;0.000;0.000;2022-10-20T10:46:52;5.70;;;3.38;;
47413;SDS011;33163;0.000;0.000;2022-10-20T10:49:38;5.75;;;3.53;;
47413;SDS011;33163;0.000;0.000;2022-10-20T10:52:22;4.60;;;2.80;;
47413;SDS011;33163;0.000;0.000;2022-10-20T10:55:01;9.25;;;3.05;;
47413;SDS011;33163;0.000;0.000;2022-10-20T10:57:35;5.72;;;3.78;;
47413;SDS011;33163;0.000;0.000;2022-10-20T11:00:14;5.35;;;3.38;;
47413;SDS011;33163;0.000;0.000;2022-10-20T11:02:54;5.37;;;2.67;;
47413;SDS011;33163;0.000;0.000;2022-10-20T11:05:43;4.10;;;2.95;;
47413;SDS011;33163;0.000;0.000;2022-10-20T11:08:25;6.05;;;3.55;;
47413;SDS011;33163;0.000;0.000;2022-10-20T11:11:03;6.97;;;2.97;;
47413;SDS011;33163;0.000;0.000;2022-10-20T11:13:38;5.25;;;2.97;;
47413;SDS011;33163;0.000;0.000;2022-10-20T11:16:14;4.20;;;3.15;;
47413;SDS011;33163;0.000;0.000;2022-10-20T11:18:59;5.70;;;3.38;;
47413;SDS011;33163;0.000;0.000;2022-10-20T11:21:35;4.82;;;3.22;;
47413;SDS011;33163;0.000;0.000;2022-10-20T11:24:16;4.18;;;3.33;;
47413;SDS011;33163;0.000;0.000;2022-10-20T11:27:05;4.43;;;3.08;;
47413;SDS011;33163;0.000;0.000;2022-10-20T11:29:35;4.80;;;3.15;;
47413;SDS011;33163;0.000;0.000;2022-10-20T11:32:07;6.72;;;3.20;;
47413;SDS011;33163;0.000;0.000;2022-10-20T11:34:44;5.70;;;3.53;;
47413;SDS011;33163;0.000;0.000;2022-10-20T11:37:18;5.65;;;3.10;;
47413;SDS011;33163;0.000;0.000;2022-10-20T11:39:50;6.15;;;3.42;;
47413;SDS011;33163;0.000;0.000;2022-10-20T11:42:22;5.80;;;3.58;;
47413;SDS011;33163;0.000;0.000;2022-10-20T11:44:56;4.78;;;3.10;;
47413;SDS011;33163;0.000;0.000;2022-10-20T11:47:27;5.32;;;3.85;;
47413;SDS011;33163;0.000;0.000;2022-10-20T11:49:58;5.45;;;3.28;;
47413;SDS011;33163;0.000;0.000;2022-10-20T11:52:32;3.70;;;3.35;;
47413;SDS011;33163;0.000;0.000;2022-10-20T11:58:35;6.18;;;4.38;;
47413;SDS011;33163;0.000;0.000;2022-10-20T12:01:23;6.10;;;3.40;;
47413;SDS011;33163;0.000;0.000;2022-10-20T12:06:56;5.93;;;3.78;;
47413;SDS011;33163;0.000;0.000;2022-10-20T12:09:55;4.60;;;3.22;;
47413;SDS011;33163;0.000;0.000;2022-10-20T12:12:33;10.15;;;3.22;;
47413;SDS011;33163;0.000;0.000;2022-10-20T12:15:18;3.92;;;2.85;;
47413;SDS011;33163;0.000;0.000;2022-10-20T12:17:47;5.18;;;3.53;;
47413;SDS011;33163;0.000;0.000;2022-10-20T12:35:26;4.53;;;3.03;;
47413;SDS011;33163;0.000;0.000;2022-10-20T12:38:13;3.63;;;3.15;;
47413;SDS011;33163;0.000;0.000;2022-10-20T12:40:44;6.50;;;3.95;;
47413;SDS011;33163;0.000;0.000;2022-10-20T12:43:24;5.53;;;3.00;;
47413;SDS011;33163;0.000;0.000;2022-10-20T12:46:03;4.60;;;2.95;;
47413;SDS011;33163;0.000;0.000;2022-10-20T12:48:41;6.72;;;3.42;;
47413;SDS011;33163;0.000;0.000;2022-10-20T12:51:15;4.45;;;3.28;;
47413;SDS011;33163;0.000;0.000;2022-10-20T12:53:50;3.53;;;2.90;;
47413;SDS011;33163;0.000;0.000;2022-10-20T12:56:19;4.72;;;3.08;;
47413;SDS011;33163;0.000;0.000;2022-10-20T12:59:20;3.90;;;3.10;;
47413;SDS011;33163;0.000;0.000;2022-10-20T13:14:15;6.72;;;3.47;;
47413;SDS011;33163;0.000;0.000;2022-10-20T13:16:56;6.90;;;3.70;;
47413;SDS011;33163;0.000;0.000;2022-10-20T13:19:29;8.30;;;3.58;;
47413;SDS011;33163;0.000;0.000;2022-10-20T13:24:54;7.25;;;3.17;;
47413;SDS011;33163;0.000;0.000;2022-10-20T13:27:22;8.63;;;3.53;;
47413;SDS011;33163;0.000;0.000;2022-10-20T13:29:49;5.00;;;3.42;;
47413;SDS011;33163;0.000;0.000;2022-10-20T13:32:17;6.22;;;3.38;;
47413;SDS011;33163;0.000;0.000;2022-10-20T13:34:49;5.25;;;3.67;;
47413;SDS011;33163;0.000;0.000;2022-10-20T13:37:23;6.32;;;3.35;;
47413;SDS011;33163;0.000;0.000;2022-10-20T13:40:02;4.63;;;3.30;;
47413;SDS011;33163;0.000;0.000;2022-10-20T13:42:42;4.38;;;3.42;;
47413;SDS011;33163;0.000;0.000;2022-10-20T13:45:18;4.78;;;3.28;;
47413;SDS011;33163;0.000;0.000;2022-10-20T13:47:55;6.10;;;2.95;;
47413;SDS011;33163;0.000;0.000;2022-10-20T13:50:31;4.88;;;3.30;;
47413;SDS011;33163;0.000;0.000;2022-10-20T13:53:02;4.53;;;2.72;;
47413;SDS011;33163;0.000;0.000;2022-10-20T13:55:51;4.75;;;2.95;;
47413;SDS011;33163;0.000;0.000;2022-10-20T13:58:22;4.00;;;3.13;;
47413;SDS011;33163;0.000;0.000;2022-10-20T14:00:54;3.20;;;2.78;;
47413;SDS011;33163;0.000;0.000;2022-10-20T14:03:23;6.03;;;2.78;;
47413;SDS011;33163;0.000;0.000;2022-10-20T14:05:50;4.88;;;3.20;;
47413;SDS011;33163;0.000;0.000;2022-10-20T14:08:19;6.25;;;3.55;;
47413;SDS011;33163;0.000;0.000;2022-10-20T14:10:48;4.10;;;3.20;;
47413;SDS011;33163;0.000;0.000;2022-10-20T14:13:17;6.90;;;4.07;;
47413;SDS011;33163;0.000;0.000;2022-10-20T14:15:47;6.45;;;3.63;;
47413;SDS011;33163;0.000;0.000;2022-10-20T14:18:20;4.63;;;3.72;;
47413;SDS011;33163;0.000;0.000;2022-10-20T14:20:53;5.80;;;3.63;;
47413;SDS011;33163;0.000;0.000;2022-10-20T14:23:28;6.97;;;3.70;;
47413;SDS011;33163;0.000;0.000;2022-10-20T14:25:59;3.28;;;2.83;;
47413;SDS011;33163;0.000;0.000;2022-10-20T14:28:28;9.35;;;3.70;;
47413;SDS011;33163;0.000;0.000;2022-10-20T14:30:57;6.65;;;3.42;;
47413;SDS011;33163;0.000;0.000;2022-10-20T14:33:25;4.72;;;3.17;;
47413;SDS011;33163;0.000;0.000;2022-10-20T14:35:53;9.18;;;4.03;;
47413;SDS011;33163;0.000;0.000;2022-10-20T14:38:22;6.30;;;3.40;;
47413;SDS011;33163;0.000;0.000;2022-10-20T14:40:54;10.35;;;3.50;;
47413;SDS011;33163;0.000;0.000;2022-10-20T14:43:23;8.93;;;3.40;;
47413;SDS011;33163;0.000;0.000;2022-10-20T14:45:59;4.32;;;3.30;;
47413;SDS011;33163;0.000;0.000;2022-10-20T14:48:28;4.90;;;3.05;;
47413;SDS011;33163;0.000;0.000;2022-10-20T14:50:58;5.70;;;3.30;;
47413;SDS011;33163;0.000;0.000;2022-10-20T14:53:28;5.22;;;3.08;;
47413;SDS011;33163;0.000;0.000;2022-10-20T14:55:59;5.82;;;3.75;;
47413;SDS011;33163;0.000;0.000;2022-10-20T14:58:31;4.30;;;3.10;;
47413;SDS011;33163;0.000;0.000;2022-10-20T15:04:01;7.15;;;4.03;;
47413;SDS011;33163;0.000;0.000;2022-10-20T15:06:29;5.07;;;3.38;;
47413;SDS011;33163;0.000;0.000;2022-10-20T15:08:55;6.07;;;3.80;;
47413;SDS011;33163;0.000;0.000;2022-10-20T15:11:24;4.97;;;3.25;;
47413;SDS011;33163;0.000;0.000;2022-10-20T15:13:55;4.70;;;3.08;;
47413;SDS011;33163;0.000;0.000;2022-10-20T15:16:33;4.47;;;3.05;;
47413;SDS011;33163;0.000;0.000;2022-10-20T15:19:17;9.10;;;3.65;;
47413;SDS011;33163;0.000;0.000;2022-10-20T15:21:51;4.55;;;3.22;;
47413;SDS011;33163;0.000;0.000;2022-10-20T15:24:25;6.88;;;3.33;;
47413;SDS011;33163;0.000;0.000;2022-10-20T15:26:54;4.65;;;3.35;;
47413;SDS011;33163;0.000;0.000;2022-10-20T15:29:21;6.72;;;3.42;;
47413;SDS011;33163;0.000;0.000;2022-10-20T15:31:48;5.70;;;3.15;;
47413;SDS011;33163;0.000;0.000;2022-10-20T15:34:15;4.13;;;3.20;;
47413;SDS011;33163;0.000;0.000;2022-10-20T15:36:42;8.65;;;3.40;;
47413;SDS011;33163;0.000;0.000;2022-10-20T15:39:08;3.85;;;2.97;;
47413;SDS011;33163;0.000;0.000;2022-10-20T15:41:36;8.00;;;3.05;;
47413;SDS011;33163;0.000;0.000;2022-10-20T15:44:10;8.02;;;3.38;;
47413;SDS011;33163;0.000;0.000;2022-10-20T15:46:39;7.13;;;2.75;;
47413;SDS011;33163;0.000;0.000;2022-10-20T15:49:06;8.63;;;3.40;;
47413;SDS011;33163;0.000;0.000;2022-10-20T15:51:34;5.30;;;3.28;;
47413;SDS011;33163;0.000;0.000;2022-10-20T15:54:03;3.90;;;3.08;;
47413;SDS011;33163;0.000;0.000;2022-10-20T15:56:29;4.60;;;3.00;;
47413;SDS011;33163;0.000;0.000;2022-10-20T15:58:57;5.07;;;2.67;;
47413;SDS011;33163;0.000;0.000;2022-10-20T16:01:25;4.13;;;3.25;;
47413;SDS011;33163;0.000;0.000;2022-10-20T16:03:52;4.95;;;2.88;;
47413;SDS011;33163;0.000;0.000;2022-10-20T16:06:20;4.85;;;3.22;;
47413;SDS011;33163;0.000;0.000;2022-10-20T16:08:47;4.88;;;2.70;;